createdAt,value
2023-05-20T00:01:39.194Z,6.18
2023-05-20T00:04:09.107Z,3.63
2023-05-20T00:06:38.880Z,4.27
2023-05-20T00:09:08.501Z,4.90
2023-05-20T00:11:40.724Z,4.80
2023-05-20T00:14:10.349Z,4.22
2023-05-20T00:16:40.015Z,4.65
2023-05-20T00:19:09.708Z,4.30
2023-05-20T00:21:39.332Z,4.30
2023-05-20T00:24:09.521Z,4.00
2023-05-20T00:26:41.698Z,4.47
2023-05-20T00:29:11.264Z,4.53
2023-05-20T00:31:40.669Z,4.68
2023-05-20T00:34:10.356Z,3.78
2023-05-20T00:36:39.944Z,4.05
2023-05-20T00:39:09.730Z,3.35
2023-05-20T00:41:41.973Z,5.53
2023-05-20T00:44:11.555Z,4.47
2023-05-20T00:46:41.230Z,4.75
2023-05-20T00:49:10.846Z,5.40
2023-05-20T00:51:40.420Z,5.32
2023-05-20T00:54:10.015Z,5.13
2023-05-20T00:56:42.167Z,5.85
2023-05-20T00:59:11.819Z,3.55
2023-05-20T01:01:41.444Z,5.85
2023-05-20T01:04:11.088Z,3.90
2023-05-20T01:06:41.073Z,4.25
2023-05-20T01:09:10.882Z,3.97
2023-05-20T01:11:45.545Z,4.85
2023-05-20T01:14:15.172Z,5.13
2023-05-20T01:16:44.764Z,4.97
2023-05-20T01:19:22.197Z,4.95
2023-05-20T01:21:52.002Z,3.70
2023-05-20T01:24:24.233Z,5.20
2023-05-20T01:26:54.551Z,3.88
2023-05-20T01:29:24.127Z,4.65
2023-05-20T01:31:53.825Z,6.10
2023-05-20T01:34:23.531Z,4.72
2023-05-20T01:36:53.156Z,2.50
2023-05-20T01:39:25.430Z,5.60
2023-05-20T01:41:55.041Z,4.05
2023-05-20T01:44:24.610Z,3.90
2023-05-20T01:46:54.255Z,5.32
2023-05-20T01:49:24.037Z,5.32
2023-05-20T01:51:53.647Z,4.88
2023-05-20T01:54:25.837Z,4.13
2023-05-20T01:56:55.541Z,5.25
2023-05-20T01:59:25.160Z,5.47
2023-05-20T02:01:54.832Z,5.30
2023-05-20T02:04:24.415Z,5.93
2023-05-20T02:06:53.984Z,4.15
2023-05-20T02:09:26.306Z,5.15
2023-05-20T02:11:56.023Z,7.05
2023-05-20T02:14:25.733Z,5.43
2023-05-20T02:16:55.437Z,5.85
2023-05-20T02:19:25.611Z,5.18
2023-05-20T02:21:55.347Z,4.88
2023-05-20T02:24:27.527Z,4.28
2023-05-20T02:26:59.099Z,5.88
2023-05-20T02:29:28.719Z,4.60
2023-05-20T02:31:58.341Z,6.40
2023-05-20T02:34:30.353Z,6.88
2023-05-20T02:37:00.115Z,6.32
2023-05-20T02:39:32.313Z,5.30
2023-05-20T02:42:01.881Z,6.82
2023-05-20T02:44:31.659Z,5.03
2023-05-20T02:47:01.342Z,5.20
2023-05-20T02:49:30.963Z,4.82
2023-05-20T02:52:00.573Z,5.97
2023-05-20T02:54:32.729Z,3.97
2023-05-20T02:57:02.428Z,5.78
2023-05-20T02:59:31.992Z,4.35
2023-05-20T03:02:01.723Z,6.03
2023-05-20T03:04:31.881Z,5.00
2023-05-20T03:07:01.608Z,6.37
2023-05-20T03:09:33.839Z,5.65
2023-05-20T03:12:03.457Z,7.25
2023-05-20T03:14:33.078Z,7.03
2023-05-20T03:17:02.835Z,5.05
2023-05-20T03:19:32.427Z,5.82
2023-05-20T03:22:02.033Z,6.30
2023-05-20T03:24:34.887Z,5.63
2023-05-20T03:27:04.494Z,4.85
2023-05-20T03:29:34.173Z,5.75
2023-05-20T03:32:03.755Z,7.18
2023-05-20T03:34:33.324Z,5.97
2023-05-20T03:37:03.049Z,4.97
2023-05-20T03:39:35.223Z,7.05
2023-05-20T03:42:04.887Z,5.20
2023-05-20T03:44:34.493Z,5.88
2023-05-20T03:47:04.211Z,5.30
2023-05-20T03:49:33.896Z,6.15
2023-05-20T03:52:03.682Z,6.13
2023-05-20T03:54:36.864Z,6.88
2023-05-20T03:57:06.661Z,6.68
2023-05-20T03:59:36.724Z,6.35
2023-05-20T04:02:06.350Z,6.72
2023-05-20T04:04:36.374Z,5.93
2023-05-20T04:07:07.882Z,6.32
2023-05-20T04:09:40.925Z,5.32
2023-05-20T04:12:11.543Z,5.15
2023-05-20T04:14:42.493Z,6.88
2023-05-20T04:17:12.145Z,5.80
2023-05-20T04:19:41.749Z,7.82
2023-05-20T04:22:11.362Z,6.43
2023-05-20T04:24:43.554Z,6.70
2023-05-20T04:27:14.207Z,5.78
2023-05-20T04:29:46.206Z,6.30
2023-05-20T04:32:16.238Z,5.85
2023-05-20T04:34:45.981Z,5.97
2023-05-20T04:37:15.724Z,7.38
2023-05-20T04:39:48.465Z,6.60
2023-05-20T04:42:18.550Z,6.32
2023-05-20T04:44:48.697Z,8.25
2023-05-20T04:47:19.302Z,8.07
2023-05-20T04:49:50.492Z,8.80
2023-05-20T04:52:20.110Z,6.30
2023-05-20T04:54:52.355Z,7.95
2023-05-20T04:57:22.037Z,7.72
2023-05-20T04:59:52.626Z,7.22
2023-05-20T05:02:22.224Z,7.60
2023-05-20T05:04:51.824Z,8.40
2023-05-20T05:07:21.465Z,7.18
2023-05-20T05:09:53.627Z,7.18
2023-05-20T05:12:23.253Z,7.22
2023-05-20T05:14:52.820Z,8.70
2023-05-20T05:17:22.461Z,7.72
2023-05-20T05:19:52.041Z,9.00
2023-05-20T05:22:21.633Z,6.43
2023-05-20T05:24:55.987Z,6.38
2023-05-20T05:27:25.835Z,6.53
2023-05-20T05:29:55.463Z,5.22
2023-05-20T05:32:25.103Z,7.22
2023-05-20T05:34:54.746Z,6.90
2023-05-20T05:37:24.317Z,6.97
2023-05-20T05:39:56.515Z,6.38
2023-05-20T05:42:26.103Z,6.15
2023-05-20T05:44:55.706Z,8.10
2023-05-20T05:47:29.850Z,7.03
2023-05-20T05:49:59.593Z,6.28
2023-05-20T05:52:29.532Z,8.27
2023-05-20T05:55:01.705Z,7.55
2023-05-20T05:57:31.262Z,7.43
2023-05-20T06:00:01.193Z,8.18
2023-05-20T06:02:31.019Z,7.00
2023-05-20T06:05:00.788Z,6.05
2023-05-20T06:07:30.383Z,8.15
2023-05-20T06:10:02.583Z,6.80
2023-05-20T06:12:32.187Z,7.03
2023-05-20T06:15:01.778Z,6.70
2023-05-20T06:17:31.413Z,7.00
2023-05-20T06:20:01.046Z,7.40
2023-05-20T06:22:30.682Z,6.43
2023-05-20T06:25:03.182Z,7.47
2023-05-20T06:27:32.816Z,5.88
2023-05-20T06:30:02.432Z,6.97
2023-05-20T06:32:32.177Z,6.82
2023-05-20T06:35:01.825Z,6.75
2023-05-20T06:37:31.385Z,8.30
2023-05-20T06:40:03.619Z,7.60
2023-05-20T06:42:33.207Z,6.55
2023-05-20T06:45:02.983Z,8.95
2023-05-20T06:47:32.627Z,7.82
2023-05-20T06:50:02.199Z,8.55
2023-05-20T06:52:31.781Z,7.50
2023-05-20T06:55:04.070Z,9.07
2023-05-20T06:57:33.639Z,8.25
2023-05-20T07:00:03.818Z,8.85
2023-05-20T07:02:33.416Z,7.13
2023-05-20T07:05:03.023Z,8.00
2023-05-20T07:07:32.833Z,7.90
2023-05-20T07:10:05.907Z,8.00
2023-05-20T07:12:36.782Z,6.70
2023-05-20T07:15:07.084Z,7.72
2023-05-20T07:17:36.719Z,6.70
2023-05-20T07:20:06.874Z,8.38
2023-05-20T07:22:36.954Z,7.83
2023-05-20T07:25:10.569Z,7.63
2023-05-20T07:27:40.260Z,7.80
2023-05-20T07:30:11.483Z,6.65
2023-05-20T07:32:41.183Z,8.40
2023-05-20T07:35:11.767Z,6.65
2023-05-20T07:37:41.342Z,9.43
2023-05-20T07:40:14.961Z,8.15
2023-05-20T07:42:44.587Z,11.23
2023-05-20T07:45:14.490Z,7.72
2023-05-20T07:47:44.153Z,8.50
2023-05-20T07:50:14.358Z,6.97
2023-05-20T07:52:55.050Z,7.80
2023-05-20T07:55:27.979Z,8.45
2023-05-20T07:57:57.635Z,9.60
2023-05-20T08:00:27.560Z,8.43
2023-05-20T08:02:57.314Z,8.80
2023-05-20T08:05:27.097Z,9.30
2023-05-20T08:07:56.658Z,7.43
2023-05-20T08:10:28.917Z,8.98
2023-05-20T08:12:58.505Z,8.43
2023-05-20T08:15:28.136Z,7.78
2023-05-20T08:17:57.760Z,9.57
2023-05-20T08:20:27.467Z,9.10
2023-05-20T08:22:57.341Z,7.65
2023-05-20T08:25:30.192Z,8.32
2023-05-20T08:28:00.757Z,8.30
2023-05-20T08:30:30.843Z,9.23
2023-05-20T08:33:00.587Z,7.77
2023-05-20T08:35:30.350Z,7.75
2023-05-20T08:37:59.968Z,8.20
2023-05-20T08:40:32.204Z,8.57
2023-05-20T08:43:04.576Z,8.35
2023-05-20T08:45:35.416Z,9.80
2023-05-20T08:50:34.862Z,8.80
2023-05-20T08:53:04.794Z,10.27
2023-05-20T08:55:40.537Z,10.07
2023-05-20T08:58:10.197Z,9.65
2023-05-20T09:00:40.060Z,11.88
2023-05-20T09:03:10.269Z,10.55
2023-05-20T09:05:39.699Z,9.02
2023-05-20T09:08:09.917Z,10.35
2023-05-20T09:10:42.015Z,9.40
2023-05-20T09:13:12.574Z,10.95
2023-05-20T09:15:42.202Z,10.25
2023-05-20T09:18:12.395Z,9.75
2023-05-20T09:20:42.100Z,9.98
2023-05-20T09:23:12.414Z,9.82
2023-05-20T09:25:44.607Z,10.75
2023-05-20T09:28:14.208Z,9.52
2023-05-20T09:30:45.893Z,9.85
2023-05-20T09:33:15.743Z,9.27
2023-05-20T09:35:45.362Z,9.57
2023-05-20T09:38:14.932Z,10.38
2023-05-20T09:40:47.156Z,9.57
2023-05-20T09:43:18.267Z,11.07
2023-05-20T09:45:47.909Z,9.95
2023-05-20T09:48:18.030Z,9.93
2023-05-20T09:50:48.773Z,9.47
2023-05-20T09:53:18.655Z,10.25
2023-05-20T09:55:50.923Z,9.95
2023-05-20T09:58:20.562Z,8.48
2023-05-20T10:00:54.170Z,9.30
2023-05-20T10:03:25.200Z,9.27
2023-05-20T10:05:58.469Z,9.75
2023-05-20T10:08:42.952Z,12.88
2023-05-20T10:11:20.033Z,11.27
2023-05-20T10:13:58.495Z,8.30
2023-05-20T10:16:32.198Z,13.30
2023-05-20T10:19:03.920Z,9.75
2023-05-20T10:21:33.627Z,10.85
2023-05-20T10:24:09.171Z,9.68
2023-05-20T10:26:41.979Z,10.75
2023-05-20T10:29:18.726Z,9.43
2023-05-20T10:31:48.633Z,9.57
2023-05-20T10:34:19.079Z,7.80
2023-05-20T10:36:49.267Z,9.27
2023-05-20T10:39:19.610Z,8.60
2023-05-20T10:41:52.062Z,9.05
2023-05-20T10:44:21.692Z,8.85
2023-05-20T10:49:27.201Z,9.50
2023-05-20T10:51:57.405Z,9.32
2023-05-20T10:54:27.249Z,8.93
2023-05-20T10:56:59.414Z,7.88
2023-05-20T10:59:29.116Z,9.65
2023-05-20T11:01:58.719Z,9.35
2023-05-20T11:04:28.362Z,8.50
2023-05-20T11:06:58.883Z,7.90
2023-05-20T11:09:28.521Z,8.25
2023-05-20T11:12:00.753Z,9.63
2023-05-20T11:14:31.363Z,8.98
2023-05-20T11:17:01.133Z,9.68
2023-05-20T11:19:30.913Z,10.05
2023-05-20T11:22:01.161Z,8.70
2023-05-20T11:24:31.327Z,10.48
2023-05-20T11:27:03.825Z,8.55
2023-05-20T11:29:33.670Z,11.13
2023-05-20T11:32:03.395Z,10.65
2023-05-20T11:34:37.420Z,9.93
2023-05-20T11:37:10.213Z,9.93
2023-05-20T11:39:40.515Z,8.95
2023-05-20T11:42:12.473Z,8.90
2023-05-20T11:44:46.670Z,9.02
2023-05-20T11:47:17.730Z,9.30
2023-05-20T11:49:51.112Z,9.85
2023-05-20T11:52:21.508Z,8.77
2023-05-20T11:54:55.137Z,9.40
2023-05-20T11:57:27.343Z,10.80
2023-05-20T11:59:56.947Z,12.98
2023-05-20T12:02:26.811Z,9.57
2023-05-20T12:04:56.584Z,9.47
2023-05-20T12:07:26.996Z,9.25
2023-05-20T12:09:56.678Z,9.07
2023-05-20T12:12:28.864Z,8.38
2023-05-20T12:14:58.548Z,9.02
2023-05-20T12:17:28.197Z,10.80
2023-05-20T12:19:57.796Z,9.35
2023-05-20T12:24:57.017Z,13.32
2023-05-20T12:27:29.212Z,9.32
2023-05-20T12:29:58.825Z,9.25
2023-05-20T12:32:28.455Z,9.52
2023-05-20T12:34:58.104Z,10.80
2023-05-20T12:37:27.738Z,9.52
2023-05-20T12:39:57.374Z,8.80
2023-05-20T12:42:29.570Z,11.40
2023-05-20T12:44:59.177Z,9.43
2023-05-20T12:47:28.581Z,9.32
2023-05-20T12:49:58.222Z,8.90
2023-05-20T12:52:28.404Z,8.68
2023-05-20T12:54:58.081Z,9.25
2023-05-20T12:57:30.261Z,9.32
2023-05-20T12:59:59.846Z,9.35
2023-05-20T13:02:29.619Z,10.02
2023-05-20T13:04:59.239Z,9.68
2023-05-20T13:07:28.855Z,9.43
2023-05-20T13:09:58.567Z,10.50
2023-05-20T13:12:30.751Z,10.20
2023-05-20T13:15:00.403Z,8.45
2023-05-20T13:17:30.445Z,9.98
2023-05-20T13:20:00.301Z,11.27
2023-05-20T13:22:30.122Z,11.45
2023-05-20T13:24:59.732Z,10.48
2023-05-20T13:27:31.932Z,12.70
2023-05-20T13:30:02.049Z,9.15
2023-05-20T13:32:31.680Z,9.80
2023-05-20T13:35:01.519Z,9.32
2023-05-20T13:37:31.141Z,8.90
2023-05-20T13:40:00.799Z,10.40
2023-05-20T13:42:33.000Z,10.85
2023-05-20T13:45:02.670Z,8.50
2023-05-20T13:47:32.414Z,11.07
2023-05-20T13:50:03.324Z,9.55
2023-05-20T13:52:33.145Z,10.88
2023-05-20T13:55:02.867Z,10.00
2023-05-20T13:57:35.066Z,11.02
2023-05-20T14:00:04.824Z,9.95
2023-05-20T14:02:34.600Z,8.60
2023-05-20T14:05:04.466Z,9.23
2023-05-20T14:07:34.129Z,9.40
2023-05-20T14:10:03.801Z,10.70
2023-05-20T14:12:36.042Z,9.20
2023-05-20T14:15:05.915Z,10.40
2023-05-20T14:17:37.702Z,10.00
2023-05-20T14:20:08.911Z,10.25
2023-05-20T14:22:38.549Z,9.38
2023-05-20T14:25:09.309Z,10.23
2023-05-20T14:27:41.757Z,9.00
2023-05-20T14:30:12.877Z,9.50
2023-05-20T14:32:42.570Z,9.95
2023-05-20T14:35:12.646Z,10.30
2023-05-20T14:37:42.328Z,11.40
2023-05-20T14:40:12.915Z,10.07
2023-05-20T14:42:45.205Z,10.02
2023-05-20T14:45:14.852Z,9.70
2023-05-20T14:47:44.498Z,11.13
2023-05-20T14:50:14.475Z,9.80
2023-05-20T14:52:44.869Z,9.10
2023-05-20T14:55:14.480Z,10.25
2023-05-20T14:57:46.640Z,11.35
2023-05-20T15:00:16.806Z,12.10
2023-05-20T15:02:46.458Z,9.63
2023-05-20T15:05:16.152Z,8.90
2023-05-20T15:07:46.922Z,9.45
2023-05-20T15:12:48.654Z,10.25
2023-05-20T15:15:18.360Z,11.82
2023-05-20T15:17:48.010Z,10.40
2023-05-20T15:20:17.656Z,9.40
2023-05-20T15:22:48.330Z,9.80
2023-05-20T15:25:18.195Z,9.35
2023-05-20T15:27:50.291Z,11.00
2023-05-20T15:30:20.023Z,10.00
2023-05-20T15:32:49.776Z,10.57
2023-05-20T15:35:19.625Z,10.05
2023-05-20T15:37:49.235Z,10.18
2023-05-20T15:40:19.000Z,10.30
2023-05-20T15:42:51.650Z,10.20
2023-05-20T15:45:21.411Z,9.45
2023-05-20T15:47:51.090Z,10.43
2023-05-20T15:50:20.732Z,10.18
2023-05-20T15:52:50.440Z,9.48
2023-05-20T15:55:20.363Z,9.65
2023-05-20T15:57:52.671Z,10.43
2023-05-20T16:00:22.660Z,9.35
2023-05-20T16:02:54.224Z,10.93
2023-05-20T16:05:25.942Z,9.82
2023-05-20T16:07:57.102Z,9.85
2023-05-20T16:10:32.768Z,9.50
2023-05-20T16:13:05.202Z,10.68
2023-05-20T16:15:36.718Z,9.95
2023-05-20T16:18:06.533Z,9.45
2023-05-20T16:20:36.299Z,11.02
2023-05-20T16:23:06.045Z,11.27
2023-05-20T16:25:35.631Z,9.77
2023-05-20T16:28:07.817Z,10.40
2023-05-20T16:30:37.687Z,10.48
2023-05-20T16:33:08.246Z,10.52
2023-05-20T16:35:37.945Z,10.80
2023-05-20T16:38:07.576Z,9.68
2023-05-20T16:40:37.175Z,9.95
2023-05-20T16:43:09.399Z,10.18
2023-05-20T16:45:38.985Z,10.43
2023-05-20T16:48:08.976Z,9.55
2023-05-20T16:50:38.530Z,9.47
2023-05-20T16:53:08.133Z,11.05
2023-05-20T16:55:37.784Z,10.65
2023-05-20T16:58:09.950Z,10.18
2023-05-20T17:00:39.562Z,11.00
2023-05-20T17:03:09.263Z,9.55
2023-05-20T17:05:38.905Z,10.73
2023-05-20T17:08:08.668Z,11.68
2023-05-20T17:10:38.272Z,11.10
2023-05-20T17:13:10.442Z,10.30
2023-05-20T17:15:40.011Z,10.88
2023-05-20T17:18:09.681Z,12.00
2023-05-20T17:20:39.328Z,10.70
2023-05-20T17:23:09.008Z,10.70
2023-05-20T17:25:38.606Z,11.43
2023-05-20T17:28:10.865Z,10.75
2023-05-20T17:30:40.461Z,12.38
2023-05-20T17:33:10.174Z,12.52
2023-05-20T17:35:39.887Z,12.07
2023-05-20T17:38:09.472Z,10.95
2023-05-20T17:40:39.129Z,10.95
2023-05-20T17:43:11.292Z,11.30
2023-05-20T17:45:41.057Z,13.32
2023-05-20T17:48:11.783Z,10.82
2023-05-20T17:53:11.070Z,11.05
2023-05-20T17:55:40.858Z,11.18
2023-05-20T17:58:13.075Z,10.90
2023-05-20T18:00:43.334Z,10.95
2023-05-20T18:03:13.978Z,11.18
2023-05-20T18:05:43.954Z,24.08
2023-05-20T18:08:13.626Z,12.98
2023-05-20T18:10:43.336Z,11.63
2023-05-20T18:13:15.609Z,11.43
2023-05-20T18:15:45.202Z,11.63
2023-05-20T18:18:14.844Z,10.65
2023-05-20T18:20:44.566Z,12.02
2023-05-20T18:23:14.174Z,12.93
2023-05-20T18:25:43.788Z,10.55
2023-05-20T18:28:16.020Z,11.13
2023-05-20T18:30:45.621Z,10.05
2023-05-20T18:33:15.301Z,12.40
2023-05-20T18:35:44.963Z,12.30
2023-05-20T18:38:14.558Z,12.63
2023-05-20T18:40:44.160Z,12.82
2023-05-20T18:43:16.484Z,12.73
2023-05-20T18:45:46.323Z,12.45
2023-05-20T18:48:25.550Z,11.00
2023-05-20T18:50:56.211Z,11.50
2023-05-20T18:53:25.836Z,12.10
2023-05-20T18:55:56.202Z,12.32
2023-05-20T18:58:28.481Z,12.10
2023-05-20T19:00:58.569Z,11.68
2023-05-20T19:03:28.256Z,13.88
2023-05-20T19:05:57.989Z,11.05
2023-05-20T19:08:27.776Z,12.90
2023-05-20T19:10:57.382Z,12.88
2023-05-20T19:13:30.553Z,13.15
2023-05-20T19:16:00.797Z,12.98
2023-05-20T19:18:30.832Z,14.05
2023-05-20T19:21:00.546Z,13.57
2023-05-20T19:23:30.140Z,12.88
2023-05-20T19:25:59.732Z,12.70
2023-05-20T19:28:31.908Z,13.05
2023-05-20T19:31:01.524Z,12.73
2023-05-20T19:33:31.431Z,13.90
2023-05-20T19:36:01.045Z,12.55
2023-05-20T19:38:30.661Z,14.55
2023-05-20T19:41:00.269Z,12.52
2023-05-20T19:43:33.031Z,12.70
2023-05-20T19:46:02.739Z,13.40
2023-05-20T19:48:32.431Z,12.48
2023-05-20T19:51:02.283Z,15.70
2023-05-20T19:53:31.843Z,13.70
2023-05-20T19:56:01.472Z,14.63
2023-05-20T19:58:33.678Z,16.63
2023-05-20T20:01:04.631Z,16.92
2023-05-20T20:06:04.363Z,14.85
2023-05-20T20:08:34.345Z,17.38
2023-05-20T20:11:04.155Z,15.77
2023-05-20T20:13:36.343Z,15.52
2023-05-20T20:16:05.983Z,13.93
2023-05-20T20:18:35.725Z,15.25
2023-05-20T20:21:06.662Z,14.63
2023-05-20T20:26:07.967Z,13.23
2023-05-20T20:31:09.552Z,15.57
2023-05-20T20:33:39.165Z,13.50
2023-05-20T20:36:09.464Z,15.43
2023-05-20T20:38:39.306Z,14.80
2023-05-20T20:41:09.627Z,14.43
2023-05-20T20:43:42.687Z,15.15
2023-05-20T20:46:14.914Z,15.48
2023-05-20T20:48:46.007Z,15.60
2023-05-20T20:51:16.081Z,14.63
2023-05-20T20:53:46.616Z,15.23
2023-05-20T20:56:16.217Z,14.82
2023-05-20T20:58:48.376Z,15.98
2023-05-20T21:01:18.140Z,16.50
2023-05-20T21:03:48.601Z,18.23
2023-05-20T21:06:18.371Z,15.90
2023-05-20T21:08:48.102Z,15.23
2023-05-20T21:11:17.936Z,16.17
2023-05-20T21:13:50.498Z,17.35
2023-05-20T21:16:20.195Z,17.00
2023-05-20T21:18:49.959Z,17.40
2023-05-20T21:21:21.710Z,17.67
2023-05-20T21:23:53.026Z,18.77
2023-05-20T21:26:22.776Z,19.05
2023-05-20T21:28:55.065Z,17.00
2023-05-20T21:31:24.681Z,17.80
2023-05-20T21:33:55.017Z,17.80
2023-05-20T21:36:24.726Z,22.33
2023-05-20T21:38:57.008Z,17.50
2023-05-20T21:41:27.380Z,17.85
2023-05-20T21:43:59.550Z,17.42
2023-05-20T21:46:34.965Z,18.42
2023-05-20T21:49:04.698Z,16.75
2023-05-20T21:51:34.313Z,17.52
2023-05-20T21:54:03.945Z,18.25
2023-05-20T21:56:33.505Z,18.80
2023-05-20T21:59:05.894Z,22.95
2023-05-20T22:04:07.054Z,19.95
2023-05-20T22:06:36.966Z,18.58
2023-05-20T22:09:06.808Z,18.42
2023-05-20T22:11:37.836Z,18.73
2023-05-20T22:16:39.426Z,16.67
2023-05-20T22:19:09.062Z,20.13
2023-05-20T22:21:48.980Z,18.35
2023-05-20T22:24:19.562Z,19.52
2023-05-20T22:26:49.142Z,18.38
2023-05-20T22:29:22.018Z,19.35
2023-05-20T22:31:51.703Z,17.63
2023-05-20T22:34:21.374Z,18.27
2023-05-20T22:36:53.703Z,19.10
2023-05-20T22:39:23.327Z,18.17
2023-05-20T22:41:52.922Z,17.60
2023-05-20T22:44:25.408Z,18.02
2023-05-20T22:46:54.976Z,18.50
2023-05-20T22:49:25.240Z,17.20
2023-05-20T22:51:55.496Z,16.85
2023-05-20T22:54:25.311Z,19.20
2023-05-20T22:56:58.201Z,18.30
2023-05-20T22:59:31.288Z,18.58
2023-05-20T23:02:00.900Z,18.90
2023-05-20T23:04:30.771Z,19.42
2023-05-20T23:07:00.472Z,19.35
2023-05-20T23:09:30.089Z,20.65
2023-05-20T23:11:59.738Z,19.33
2023-05-20T23:14:31.981Z,18.60
2023-05-20T23:17:01.673Z,19.30
2023-05-20T23:19:31.481Z,19.00
2023-05-20T23:22:01.561Z,20.77
2023-05-20T23:24:31.243Z,18.48
2023-05-20T23:27:01.331Z,19.77
2023-05-20T23:29:34.004Z,19.37
2023-05-20T23:32:03.626Z,21.90
2023-05-20T23:34:34.187Z,19.65
2023-05-20T23:37:03.813Z,19.42
2023-05-20T23:39:33.443Z,20.05
2023-05-20T23:42:03.391Z,19.33
2023-05-20T23:44:35.590Z,19.38
2023-05-20T23:47:07.744Z,17.75
2023-05-20T23:49:37.449Z,20.30
2023-05-20T23:52:07.783Z,20.55
2023-05-20T23:54:37.388Z,20.15
2023-05-20T23:57:10.348Z,17.98
2023-05-20T23:59:43.188Z,18.35
